sensor_id;sensor_type;location;lat;lon;timestamp;pressure;altitude;pressure_sealevel;temperature
82774;BMP280;72508;45.118;20.728;2024-03-02T00:00:04;99870.69;;;15.56
82774;BMP280;72508;45.118;20.728;2024-03-02T00:10:26;99870.13;;;15.49
82774;BMP280;72508;45.118;20.728;2024-03-02T00:20:32;99857.66;;;15.34
82774;BMP280;72508;45.118;20.728;2024-03-02T00:30:51;99855.81;;;15.30
82774;BMP280;72508;45.118;20.728;2024-03-02T00:40:56;99859.47;;;15.24
82774;BMP280;72508;45.118;20.728;2024-03-02T00:50:58;99850.44;;;15.20
82774;BMP280;72508;45.118;20.728;2024-03-02T01:00:59;99832.97;;;15.08
82774;BMP280;72508;45.118;20.728;2024-03-02T01:11:02;99842.50;;;15.14
82774;BMP280;72508;45.118;20.728;2024-03-02T01:21:03;99843.81;;;15.12
82774;BMP280;72508;45.118;20.728;2024-03-02T01:31:05;99829.28;;;15.09
82774;BMP280;72508;45.118;20.728;2024-03-02T01:41:07;99818.66;;;14.94
82774;BMP280;72508;45.118;20.728;2024-03-02T01:51:09;99826.59;;;14.94
82774;BMP280;72508;45.118;20.728;2024-03-02T02:01:11;99824.97;;;14.93
82774;BMP280;72508;45.118;20.728;2024-03-02T02:11:16;99822.09;;;14.94
82774;BMP280;72508;45.118;20.728;2024-03-02T02:21:22;99814.91;;;14.85
82774;BMP280;72508;45.118;20.728;2024-03-02T02:31:24;99814.88;;;14.80
82774;BMP280;72508;45.118;20.728;2024-03-02T02:41:25;99819.06;;;14.76
82774;BMP280;72508;45.118;20.728;2024-03-02T02:51:27;99821.94;;;14.74
82774;BMP280;72508;45.118;20.728;2024-03-02T03:01:29;99816.38;;;14.70
82774;BMP280;72508;45.118;20.728;2024-03-02T03:11:30;99821.16;;;14.74
82774;BMP280;72508;45.118;20.728;2024-03-02T03:21:32;99812.13;;;14.64
82774;BMP280;72508;45.118;20.728;2024-03-02T03:31:34;99824.63;;;14.47
82774;BMP280;72508;45.118;20.728;2024-03-02T03:41:35;99822.22;;;14.40
82774;BMP280;72508;45.118;20.728;2024-03-02T03:51:37;99833.53;;;14.41
82774;BMP280;72508;45.118;20.728;2024-03-02T04:01:39;99840.94;;;14.44
82774;BMP280;72508;45.118;20.728;2024-03-02T04:11:41;99847.75;;;14.40
82774;BMP280;72508;45.118;20.728;2024-03-02T04:21:42;99847.97;;;14.33
82774;BMP280;72508;45.118;20.728;2024-03-02T04:31:44;99841.88;;;14.05
82774;BMP280;72508;45.118;20.728;2024-03-02T04:41:46;99845.81;;;14.03
82774;BMP280;72508;45.118;20.728;2024-03-02T04:51:48;99856.75;;;13.95
82774;BMP280;72508;45.118;20.728;2024-03-02T05:01:49;99856.97;;;13.88
82774;BMP280;72508;45.118;20.728;2024-03-02T05:11:51;99861.09;;;13.79
82774;BMP280;72508;45.118;20.728;2024-03-02T05:22:13;99863.31;;;13.70
82774;BMP280;72508;45.118;20.728;2024-03-02T05:32:15;99869.59;;;13.69
82774;BMP280;72508;45.118;20.728;2024-03-02T05:42:16;99879.03;;;13.65
82774;BMP280;72508;45.118;20.728;2024-03-02T05:52:19;99866.88;;;13.59
82774;BMP280;72508;45.118;20.728;2024-03-02T06:02:22;99862.00;;;13.51
82774;BMP280;72508;45.118;20.728;2024-03-02T06:12:24;99878.50;;;13.63
82774;BMP280;72508;45.118;20.728;2024-03-02T06:22:25;99900.56;;;13.62
82774;BMP280;72508;45.118;20.728;2024-03-02T06:32:27;99912.28;;;13.71
82774;BMP280;72508;45.118;20.728;2024-03-02T06:42:29;99934.38;;;13.70
82774;BMP280;72508;45.118;20.728;2024-03-02T06:52:34;99927.03;;;13.72
82774;BMP280;72508;45.118;20.728;2024-03-02T07:02:36;99932.78;;;13.69
82774;BMP280;72508;45.118;20.728;2024-03-02T07:12:38;99952.56;;;13.72
82774;BMP280;72508;45.118;20.728;2024-03-02T07:22:40;99960.34;;;13.83
82774;BMP280;72508;45.118;20.728;2024-03-02T07:32:41;99965.53;;;13.78
82774;BMP280;72508;45.118;20.728;2024-03-02T07:42:46;99976.50;;;14.09
82774;BMP280;72508;45.118;20.728;2024-03-02T07:52:48;99981.25;;;14.12
82774;BMP280;72508;45.118;20.728;2024-03-02T08:02:50;99986.28;;;14.14
82774;BMP280;72508;45.118;20.728;2024-03-02T08:12:52;99999.66;;;14.12
82774;BMP280;72508;45.118;20.728;2024-03-02T08:22:54;100006.13;;;14.21
82774;BMP280;72508;45.118;20.728;2024-03-02T08:32:56;100010.00;;;14.36
82774;BMP280;72508;45.118;20.728;2024-03-02T08:42:58;100021.28;;;14.53
82774;BMP280;72508;45.118;20.728;2024-03-02T08:52:59;100013.53;;;14.68
82774;BMP280;72508;45.118;20.728;2024-03-02T09:03:01;100006.34;;;14.64
82774;BMP280;72508;45.118;20.728;2024-03-02T09:13:03;100008.34;;;14.52
82774;BMP280;72508;45.118;20.728;2024-03-02T09:23:05;100029.97;;;14.76
82774;BMP280;72508;45.118;20.728;2024-03-02T09:33:06;100026.94;;;14.89
82774;BMP280;72508;45.118;20.728;2024-03-02T09:43:08;100031.34;;;15.10
82774;BMP280;72508;45.118;20.728;2024-03-02T09:53:11;100038.88;;;15.29
82774;BMP280;72508;45.118;20.728;2024-03-02T10:03:13;100036.44;;;15.54
82774;BMP280;72508;45.118;20.728;2024-03-02T10:13:15;100037.44;;;15.86
82774;BMP280;72508;45.118;20.728;2024-03-02T10:23:17;100042.34;;;16.14
82774;BMP280;72508;45.118;20.728;2024-03-02T10:33:20;100037.56;;;16.16
82774;BMP280;72508;45.118;20.728;2024-03-02T10:43:21;100025.03;;;16.49
82774;BMP280;72508;45.118;20.728;2024-03-02T10:53:23;100020.59;;;17.01
82774;BMP280;72508;45.118;20.728;2024-03-02T11:03:25;100016.38;;;17.30
82774;BMP280;72508;45.118;20.728;2024-03-02T11:13:30;100018.38;;;17.90
82774;BMP280;72508;45.118;20.728;2024-03-02T11:23:32;100014.66;;;17.85
82774;BMP280;72508;45.118;20.728;2024-03-02T11:33:35;100015.78;;;17.64
82774;BMP280;72508;45.118;20.728;2024-03-02T11:43:37;100016.63;;;17.54
82774;BMP280;72508;45.118;20.728;2024-03-02T11:53:40;100012.22;;;18.04
82774;BMP280;72508;45.118;20.728;2024-03-02T12:03:44;100013.28;;;17.98
82774;BMP280;72508;45.118;20.728;2024-03-02T12:13:53;100003.28;;;18.40
82774;BMP280;72508;45.118;20.728;2024-03-02T12:23:59;100002.94;;;18.86
82774;BMP280;72508;45.118;20.728;2024-03-02T12:34:03;100002.53;;;19.32
82774;BMP280;72508;45.118;20.728;2024-03-02T12:44:06;100000.69;;;20.18
82774;BMP280;72508;45.118;20.728;2024-03-02T12:54:08;99994.03;;;19.78
82774;BMP280;72508;45.118;20.728;2024-03-02T13:04:10;100000.81;;;19.89
82774;BMP280;72508;45.118;20.728;2024-03-02T13:14:12;99990.75;;;20.24
82774;BMP280;72508;45.118;20.728;2024-03-02T13:24:14;99987.16;;;19.77
82774;BMP280;72508;45.118;20.728;2024-03-02T13:34:15;99981.31;;;20.50
82774;BMP280;72508;45.118;20.728;2024-03-02T13:44:17;99982.22;;;20.59
82774;BMP280;72508;45.118;20.728;2024-03-02T13:54:19;99992.50;;;20.14
82774;BMP280;72508;45.118;20.728;2024-03-02T14:04:21;99996.22;;;20.13
82774;BMP280;72508;45.118;20.728;2024-03-02T14:14:22;99988.69;;;20.02
82774;BMP280;72508;45.118;20.728;2024-03-02T14:24:24;99977.97;;;19.88
82774;BMP280;72508;45.118;20.728;2024-03-02T14:34:27;99983.44;;;20.15
82774;BMP280;72508;45.118;20.728;2024-03-02T14:44:29;99973.94;;;20.61
82774;BMP280;72508;45.118;20.728;2024-03-02T14:54:30;99972.03;;;20.80
82774;BMP280;72508;45.118;20.728;2024-03-02T15:04:32;99975.38;;;20.86
82774;BMP280;72508;45.118;20.728;2024-03-02T15:14:34;99976.47;;;20.52
82774;BMP280;72508;45.118;20.728;2024-03-02T15:24:35;99967.03;;;20.08
82774;BMP280;72508;45.118;20.728;2024-03-02T15:34:37;99970.31;;;19.62
82774;BMP280;72508;45.118;20.728;2024-03-02T15:44:41;99971.44;;;19.32
82774;BMP280;72508;45.118;20.728;2024-03-02T15:54:43;99977.28;;;19.05
82774;BMP280;72508;45.118;20.728;2024-03-02T16:04:45;99980.63;;;18.87
82774;BMP280;72508;45.118;20.728;2024-03-02T16:14:47;99988.28;;;18.59
82774;BMP280;72508;45.118;20.728;2024-03-02T16:24:49;99989.88;;;18.16
82774;BMP280;72508;45.118;20.728;2024-03-02T16:34:50;99998.22;;;17.88
82774;BMP280;72508;45.118;20.728;2024-03-02T16:44:52;100020.56;;;17.62
82774;BMP280;72508;45.118;20.728;2024-03-02T16:54:57;100024.84;;;17.27
82774;BMP280;72508;45.118;20.728;2024-03-02T17:04:59;100028.03;;;16.99
82774;BMP280;72508;45.118;20.728;2024-03-02T17:15:01;100043.34;;;16.71
82774;BMP280;72508;45.118;20.728;2024-03-02T17:25:03;100037.44;;;16.43
82774;BMP280;72508;45.118;20.728;2024-03-02T17:35:05;100044.50;;;16.27
82774;BMP280;72508;45.118;20.728;2024-03-02T17:45:07;100055.72;;;15.97
82774;BMP280;72508;45.118;20.728;2024-03-02T17:55:09;100068.06;;;15.81
82774;BMP280;72508;45.118;20.728;2024-03-02T18:05:11;100073.25;;;15.71
82774;BMP280;72508;45.118;20.728;2024-03-02T18:15:13;100082.38;;;15.53
82774;BMP280;72508;45.118;20.728;2024-03-02T18:25:15;100073.28;;;15.39
82774;BMP280;72508;45.118;20.728;2024-03-02T18:35:16;100078.13;;;15.20
82774;BMP280;72508;45.118;20.728;2024-03-02T18:45:19;100068.06;;;14.90
82774;BMP280;72508;45.118;20.728;2024-03-02T18:55:21;100095.09;;;14.80
82774;BMP280;72508;45.118;20.728;2024-03-02T19:05:23;100114.66;;;14.62
82774;BMP280;72508;45.118;20.728;2024-03-02T19:15:45;100097.81;;;14.41
82774;BMP280;72508;45.118;20.728;2024-03-02T19:25:47;100095.75;;;14.26
82774;BMP280;72508;45.118;20.728;2024-03-02T19:35:49;100108.25;;;14.14
82774;BMP280;72508;45.118;20.728;2024-03-02T19:45:52;100110.94;;;14.02
82774;BMP280;72508;45.118;20.728;2024-03-02T19:55:54;100098.91;;;13.90
82774;BMP280;72508;45.118;20.728;2024-03-02T20:05:55;100098.84;;;13.85
82774;BMP280;72508;45.118;20.728;2024-03-02T20:15:57;100110.94;;;13.52
82774;BMP280;72508;45.118;20.728;2024-03-02T20:26:00;100103.06;;;13.23
82774;BMP280;72508;45.118;20.728;2024-03-02T20:36:02;100098.44;;;13.30
82774;BMP280;72508;45.118;20.728;2024-03-02T20:46:04;100108.31;;;13.23
82774;BMP280;72508;45.118;20.728;2024-03-02T20:56:08;100109.47;;;13.27
82774;BMP280;72508;45.118;20.728;2024-03-02T21:06:10;100108.38;;;13.28
82774;BMP280;72508;45.118;20.728;2024-03-02T21:16:12;100115.63;;;13.21
82774;BMP280;72508;45.118;20.728;2024-03-02T21:26:14;100112.63;;;13.29
82774;BMP280;72508;45.118;20.728;2024-03-02T21:36:16;100115.25;;;13.29
82774;BMP280;72508;45.118;20.728;2024-03-02T21:46:17;100112.25;;;13.09
82774;BMP280;72508;45.118;20.728;2024-03-02T21:56:19;100122.91;;;13.14
82774;BMP280;72508;45.118;20.728;2024-03-02T22:06:20;100119.94;;;12.99
82774;BMP280;72508;45.118;20.728;2024-03-02T22:16:22;100122.09;;;13.02
82774;BMP280;72508;45.118;20.728;2024-03-02T22:26:25;100119.97;;;12.87
82774;BMP280;72508;45.118;20.728;2024-03-02T22:36:26;100123.63;;;12.86
82774;BMP280;72508;45.118;20.728;2024-03-02T22:46:28;100136.44;;;12.94
82774;BMP280;72508;45.118;20.728;2024-03-02T22:56:30;100119.19;;;12.86
82774;BMP280;72508;45.118;20.728;2024-03-02T23:06:34;100119.19;;;12.86
82774;BMP280;72508;45.118;20.728;2024-03-02T23:16:36;100121.31;;;12.89
82774;BMP280;72508;45.118;20.728;2024-03-02T23:26:40;100122.03;;;12.85
82774;BMP280;72508;45.118;20.728;2024-03-02T23:36:42;100122.41;;;12.65
82774;BMP280;72508;45.118;20.728;2024-03-02T23:46:43;100129.38;;;12.59
82774;BMP280;72508;45.118;20.728;2024-03-02T23:56:45;100124.03;;;12.66
